Time;durP1;ratioP1;P1;durP2;ratioP2;P2;SDS_P1;SDS_P2;PMS_P1;PMS_P2;Temp;Humidity;BMP_temperature;BMP_pressure;BME280_temperature;BME280_humidity;BME280_pressure;Samples;Min_cycle;Max_cycle;Signal;HPM_P1;HPM_P2
2023/07/10 00:00:52;;;;;;;15.60;11.65;;;;;;;;;;5012926;28;20022;-70
2023/07/10 00:03:18;;;;;;;15.85;12.15;;;;;;;;;;5012101;28;20547;-70
2023/07/10 00:05:43;;;;;;;10.48;8.48;;;;;;;;;;5011824;28;20018;-70
2023/07/10 00:08:08;;;;;;;12.52;8.95;;;;;;;;;;5012328;28;20029;-70
2023/07/10 00:10:34;;;;;;;12.57;10.80;;;;;;;;;;5012528;28;20026;-70
2023/07/10 00:13:00;;;;;;;15.32;11.00;;;;;;;;;;5012810;28;20022;-70
2023/07/10 00:15:26;;;;;;;11.45;9.15;;;;;;;;;;5012180;28;20018;-70
2023/07/10 00:17:51;;;;;;;12.57;9.95;;;;;;;;;;5012566;28;20030;-69
2023/07/10 00:20:27;;;;;;;10.77;7.75;;;;;;;;;;5008241;28;20064;-70
2023/07/10 00:22:53;;;;;;;12.13;9.23;;;;;;;;;;5009660;28;20033;-71
2023/07/10 00:25:19;;;;;;;12.57;9.70;;;;;;;;;;5012647;28;20034;-70
2023/07/10 00:27:46;;;;;;;10.65;8.18;;;;;;;;;;5012049;28;20030;-70
2023/07/10 00:30:24;;;;;;;10.05;9.02;;;;;;;;;;5011127;28;20409;-71
2023/07/10 00:32:51;;;;;;;15.45;11.82;;;;;;;;;;5008354;28;20084;-70
2023/07/10 00:35:17;;;;;;;13.25;10.45;;;;;;;;;;4991945;28;20109;-70
2023/07/10 00:37:49;;;;;;;12.35;9.98;;;;;;;;;;5015692;28;20204;-70
2023/07/10 00:40:17;;;;;;;11.45;9.07;;;;;;;;;;5008764;28;20522;-70
2023/07/10 00:42:43;;;;;;;11.75;9.10;;;;;;;;;;5014874;28;20061;-71
2023/07/10 00:45:09;;;;;;;15.32;10.63;;;;;;;;;;5014754;28;20026;-70
2023/07/10 00:47:36;;;;;;;9.15;8.00;;;;;;;;;;5014591;28;20021;-70
2023/07/10 00:50:12;;;;;;;12.85;10.25;;;;;;;;;;5014652;28;20018;-71
2023/07/10 00:52:43;;;;;;;9.40;7.32;;;;;;;;;;5014620;28;20395;-71
2023/07/10 00:55:22;;;;;;;11.02;8.93;;;;;;;;;;5015807;28;20026;-70
2023/07/10 00:57:51;;;;;;;11.63;8.57;;;;;;;;;;4997545;28;20101;-71
2023/07/10 01:00:21;;;;;;;14.65;11.80;;;;;;;;;;5014555;28;20028;-70
2023/07/10 01:02:47;;;;;;;12.23;10.25;;;;;;;;;;5013863;28;20026;-71
2023/07/10 01:05:13;;;;;;;12.43;10.38;;;;;;;;;;5013868;28;20080;-70
2023/07/10 01:07:42;;;;;;;10.30;8.27;;;;;;;;;;5014565;28;20025;-70
2023/07/10 01:10:09;;;;;;;11.73;9.35;;;;;;;;;;5009993;28;20022;-70
2023/07/10 01:12:53;;;;;;;13.95;11.13;;;;;;;;;;4995569;28;20690;-71
2023/07/10 01:15:19;;;;;;;11.88;9.07;;;;;;;;;;4998274;28;20029;-70
2023/07/10 01:17:46;;;;;;;12.05;9.68;;;;;;;;;;5014411;28;20021;-70
2023/07/10 01:20:40;;;;;;;13.05;8.85;;;;;;;;;;5015333;28;20076;-71
2023/07/10 01:23:06;;;;;;;9.73;8.65;;;;;;;;;;4996865;28;20395;-71
2023/07/10 01:25:39;;;;;;;8.70;7.80;;;;;;;;;;5014940;28;20022;-71
2023/07/10 01:28:09;;;;;;;11.73;10.52;;;;;;;;;;5012786;28;20395;-71
2023/07/10 01:30:36;;;;;;;10.20;8.57;;;;;;;;;;5014393;28;20037;-70
2023/07/10 01:33:01;;;;;;;10.70;8.18;;;;;;;;;;5013691;28;20030;-70
2023/07/10 01:35:29;;;;;;;12.52;9.07;;;;;;;;;;5015256;28;20490;-70
2023/07/10 01:37:55;;;;;;;8.20;6.47;;;;;;;;;;5014032;28;20131;-71
2023/07/10 01:40:24;;;;;;;8.68;7.03;;;;;;;;;;5009721;28;20038;-71
2023/07/10 01:42:50;;;;;;;11.50;9.63;;;;;;;;;;4995314;28;20033;-71
2023/07/10 01:45:15;;;;;;;7.97;6.05;;;;;;;;;;5011609;28;20026;-71
2023/07/10 01:47:40;;;;;;;13.98;9.05;;;;;;;;;;5013440;28;20025;-71
2023/07/10 01:50:06;;;;;;;11.27;9.02;;;;;;;;;;5013136;28;20030;-71
2023/07/10 01:52:32;;;;;;;11.23;8.07;;;;;;;;;;5012685;28;20068;-70
2023/07/10 01:54:57;;;;;;;10.68;9.52;;;;;;;;;;5014963;28;20394;-70
2023/07/10 01:57:23;;;;;;;12.27;8.57;;;;;;;;;;5014306;28;20072;-71
2023/07/10 01:59:52;;;;;;;10.70;8.00;;;;;;;;;;5014811;28;20475;-70
2023/07/10 02:02:18;;;;;;;13.38;10.15;;;;;;;;;;5013505;28;20033;-70
2023/07/10 02:04:43;;;;;;;14.50;9.73;;;;;;;;;;5013522;28;20053;-70
2023/07/10 02:07:09;;;;;;;9.90;7.80;;;;;;;;;;5014233;28;20025;-71
2023/07/10 02:09:34;;;;;;;11.90;10.00;;;;;;;;;;5014924;28;20032;-70
2023/07/10 02:12:00;;;;;;;13.20;10.55;;;;;;;;;;5014769;28;20026;-70
2023/07/10 02:14:25;;;;;;;15.00;10.65;;;;;;;;;;5014914;28;20030;-70
2023/07/10 02:16:51;;;;;;;13.93;11.85;;;;;;;;;;5014757;28;20026;-70
2023/07/10 02:19:17;;;;;;;12.55;10.77;;;;;;;;;;5012740;28;20025;-71
2023/07/10 02:21:43;;;;;;;14.50;11.93;;;;;;;;;;5014361;28;20017;-70
2023/07/10 02:24:08;;;;;;;16.40;11.98;;;;;;;;;;5013140;28;20529;-70
2023/07/10 02:26:34;;;;;;;14.77;10.70;;;;;;;;;;5013005;28;20053;-70
2023/07/10 02:29:00;;;;;;;15.63;10.65;;;;;;;;;;5013143;28;20475;-70
2023/07/10 02:31:26;;;;;;;12.75;9.63;;;;;;;;;;5013815;28;20057;-71
2023/07/10 02:33:52;;;;;;;13.88;11.02;;;;;;;;;;5014166;28;20034;-71
2023/07/10 02:36:17;;;;;;;12.93;11.43;;;;;;;;;;5014441;28;20434;-70
2023/07/10 02:38:43;;;;;;;13.23;11.30;;;;;;;;;;5012869;28;20367;-71
2023/07/10 02:41:08;;;;;;;13.15;9.52;;;;;;;;;;5013900;28;20030;-71
2023/07/10 02:43:34;;;;;;;14.82;10.57;;;;;;;;;;5012284;28;20406;-71
2023/07/10 02:45:59;;;;;;;12.52;9.13;;;;;;;;;;5013041;28;20022;-71
2023/07/10 02:48:25;;;;;;;11.77;10.05;;;;;;;;;;5012629;28;20088;-71
2023/07/10 02:50:50;;;;;;;13.10;9.55;;;;;;;;;;5014410;28;20033;-71
2023/07/10 02:53:15;;;;;;;15.48;11.02;;;;;;;;;;5012138;28;20028;-71
2023/07/10 02:55:41;;;;;;;15.98;10.10;;;;;;;;;;5013834;28;20096;-71
2023/07/10 02:58:07;;;;;;;13.25;10.15;;;;;;;;;;5012533;28;20033;-71
2023/07/10 03:00:32;;;;;;;10.48;7.50;;;;;;;;;;5013158;28;20437;-71
2023/07/10 03:02:58;;;;;;;12.88;9.85;;;;;;;;;;5013470;28;20030;-71
2023/07/10 03:05:24;;;;;;;13.02;11.63;;;;;;;;;;5012413;28;20391;-71
2023/07/10 03:07:49;;;;;;;13.30;10.93;;;;;;;;;;5013645;28;20101;-71
2023/07/10 03:10:15;;;;;;;14.95;12.57;;;;;;;;;;5013814;28;20368;-71
2023/07/10 03:12:41;;;;;;;14.45;11.13;;;;;;;;;;5013586;28;20034;-70
2023/07/10 03:15:06;;;;;;;13.52;10.52;;;;;;;;;;5028319;28;20033;-71
2023/07/10 03:17:32;;;;;;;14.93;10.95;;;;;;;;;;5012267;28;20029;-70
2023/07/10 03:19:57;;;;;;;14.15;10.18;;;;;;;;;;5012451;28;20029;-71
2023/07/10 03:22:23;;;;;;;14.30;10.60;;;;;;;;;;5012157;28;20501;-71
2023/07/10 03:24:51;;;;;;;14.00;11.13;;;;;;;;;;4995773;28;20032;-71
2023/07/10 03:27:17;;;;;;;13.68;10.25;;;;;;;;;;5012153;28;20026;-71
2023/07/10 03:29:42;;;;;;;16.88;12.93;;;;;;;;;;5012859;28;20364;-70
2023/07/10 03:32:08;;;;;;;14.73;10.85;;;;;;;;;;5013211;28;20021;-70
2023/07/10 03:34:33;;;;;;;13.32;10.10;;;;;;;;;;5013291;28;20045;-70
2023/07/10 03:36:59;;;;;;;13.82;10.43;;;;;;;;;;5013336;28;20018;-70
2023/07/10 03:39:24;;;;;;;14.32;10.38;;;;;;;;;;4995199;28;20498;-70
2023/07/10 03:41:49;;;;;;;15.10;11.45;;;;;;;;;;5013134;28;20026;-71
2023/07/10 03:44:15;;;;;;;15.70;12.00;;;;;;;;;;5013184;28;20036;-71
2023/07/10 03:46:40;;;;;;;18.52;12.35;;;;;;;;;;5013070;28;20040;-70
2023/07/10 03:49:05;;;;;;;15.00;12.98;;;;;;;;;;5013649;28;20525;-70
2023/07/10 03:51:31;;;;;;;17.02;10.82;;;;;;;;;;5012953;28;20026;-70
2023/07/10 03:53:56;;;;;;;12.65;10.55;;;;;;;;;;5012572;28;20471;-71
2023/07/10 03:56:21;;;;;;;15.55;11.68;;;;;;;;;;5012044;28;20022;-70
2023/07/10 03:58:50;;;;;;;16.35;11.20;;;;;;;;;;5013181;28;20026;-70
2023/07/10 04:01:15;;;;;;;17.15;11.90;;;;;;;;;;5013193;28;20033;-70
2023/07/10 04:03:41;;;;;;;19.92;12.65;;;;;;;;;;5011851;28;20025;-70
2023/07/10 04:06:08;;;;;;;16.40;13.00;;;;;;;;;;5011408;28;20026;-71
2023/07/10 04:08:35;;;;;;;17.30;12.40;;;;;;;;;;5028267;28;20022;-71
2023/07/10 04:11:06;;;;;;;18.08;13.77;;;;;;;;;;5011806;28;20430;-71
2023/07/10 04:13:31;;;;;;;17.00;13.80;;;;;;;;;;5012909;28;20087;-71
2023/07/10 04:16:19;;;;;;;14.40;11.88;;;;;;;;;;4997935;28;20026;-71
2023/07/10 04:18:46;;;;;;;14.88;11.02;;;;;;;;;;5016822;28;20033;-71
2023/07/10 04:21:15;;;;;;;16.10;11.73;;;;;;;;;;5016623;28;20029;-71
2023/07/10 04:23:40;;;;;;;18.20;13.60;;;;;;;;;;5016617;28;20033;-71
2023/07/10 04:26:06;;;;;;;20.42;14.32;;;;;;;;;;5014837;28;20025;-71
2023/07/10 04:28:32;;;;;;;20.13;14.65;;;;;;;;;;5015311;28;20025;-70
2023/07/10 04:30:57;;;;;;;18.13;13.50;;;;;;;;;;5015281;28;20438;-70
2023/07/10 04:33:23;;;;;;;16.88;13.40;;;;;;;;;;5016627;28;20032;-70
2023/07/10 04:35:56;;;;;;;16.83;12.85;;;;;;;;;;5016449;28;20030;-70
2023/07/10 04:38:23;;;;;;;17.80;13.40;;;;;;;;;;4998240;28;20129;-71
2023/07/10 04:40:53;;;;;;;17.10;13.35;;;;;;;;;;5014964;28;20044;-71
2023/07/10 04:43:18;;;;;;;20.25;13.65;;;;;;;;;;5016220;28;20029;-74
2023/07/10 04:45:43;;;;;;;13.85;10.98;;;;;;;;;;5016181;28;20030;-71
2023/07/10 04:48:09;;;;;;;17.85;13.77;;;;;;;;;;5015696;28;20495;-71
2023/07/10 04:50:34;;;;;;;15.27;13.55;;;;;;;;;;5002845;28;20033;-71
2023/07/10 04:52:59;;;;;;;20.00;12.68;;;;;;;;;;5009783;28;20034;-70
2023/07/10 04:55:25;;;;;;;16.40;13.23;;;;;;;;;;5014674;28;20026;-70
2023/07/10 04:57:50;;;;;;;16.60;14.02;;;;;;;;;;5014887;28;20024;-70
2023/07/10 05:00:16;;;;;;;20.60;12.77;;;;;;;;;;5014492;28;20540;-71
2023/07/10 05:02:41;;;;;;;17.98;13.43;;;;;;;;;;5014721;28;20117;-71
2023/07/10 05:05:07;;;;;;;15.50;11.15;;;;;;;;;;5015848;28;20471;-71
2023/07/10 05:07:32;;;;;;;21.10;16.23;;;;;;;;;;5015484;28;20026;-71
2023/07/10 05:09:58;;;;;;;16.88;13.15;;;;;;;;;;5014492;28;20075;-71
2023/07/10 05:12:23;;;;;;;22.23;15.13;;;;;;;;;;5014465;28;20029;-70
2023/07/10 05:14:48;;;;;;;18.38;13.55;;;;;;;;;;5015642;28;20026;-72
2023/07/10 05:17:14;;;;;;;19.13;13.23;;;;;;;;;;5015626;28;20014;-71
2023/07/10 05:19:39;;;;;;;22.58;14.50;;;;;;;;;;5015010;28;20033;-71
2023/07/10 05:22:05;;;;;;;20.77;14.70;;;;;;;;;;5015486;28;20018;-72
2023/07/10 05:24:30;;;;;;;22.60;14.38;;;;;;;;;;5015461;28;20049;-72
2023/07/10 05:26:55;;;;;;;22.67;16.40;;;;;;;;;;5030811;28;20390;-72
2023/07/10 05:29:21;;;;;;;19.60;15.02;;;;;;;;;;5015229;28;20032;-72
2023/07/10 05:31:46;;;;;;;22.13;15.23;;;;;;;;;;5014791;28;20083;-73
2023/07/10 05:34:11;;;;;;;22.70;16.50;;;;;;;;;;5015170;28;20053;-74
2023/07/10 05:36:37;;;;;;;21.88;15.52;;;;;;;;;;5015268;28;20049;-74
2023/07/10 05:39:02;;;;;;;21.48;16.08;;;;;;;;;;5015195;28;20024;-74
2023/07/10 05:41:29;;;;;;;22.10;15.27;;;;;;;;;;5014923;28;20052;-74
2023/07/10 05:43:54;;;;;;;19.33;15.05;;;;;;;;;;5015150;28;20109;-74
2023/07/10 05:46:20;;;;;;;16.90;12.82;;;;;;;;;;5013187;28;20026;-74
2023/07/10 05:48:45;;;;;;;19.23;14.52;;;;;;;;;;5014037;28;20033;-74
2023/07/10 05:51:10;;;;;;;18.38;12.20;;;;;;;;;;5014823;28;20030;-74
2023/07/10 05:53:36;;;;;;;18.33;14.02;;;;;;;;;;5014217;28;20021;-74
2023/07/10 05:56:01;;;;;;;23.25;15.60;;;;;;;;;;5013193;28;20018;-74
2023/07/10 05:58:29;;;;;;;22.73;15.10;;;;;;;;;;5013232;28;20375;-74
2023/07/10 06:00:58;;;;;;;21.40;13.68;;;;;;;;;;5013188;28;20022;-74
2023/07/10 06:03:23;;;;;;;18.27;14.27;;;;;;;;;;5012848;28;20026;-74
2023/07/10 06:05:58;;;;;;;20.17;13.45;;;;;;;;;;5013174;28;20036;-74
2023/07/10 06:08:24;;;;;;;20.73;13.27;;;;;;;;;;5013296;28;20057;-73
2023/07/10 06:10:50;;;;;;;17.17;12.75;;;;;;;;;;5012290;28;20025;-73
2023/07/10 06:13:15;;;;;;;16.77;11.88;;;;;;;;;;5014572;28;20022;-73
2023/07/10 06:15:46;;;;;;;16.83;12.60;;;;;;;;;;5013845;28;20434;-73
2023/07/10 06:18:11;;;;;;;;;;;;;;;;;;5013144;28;20036;-73
2023/07/10 06:20:37;;;;;;;18.03;12.80;;;;;;;;;;5012475;28;19917;-73
2023/07/10 06:23:02;;;;;;;15.60;12.15;;;;;;;;;;5012919;28;20437;-73
2023/07/10 06:25:27;;;;;;;22.38;14.23;;;;;;;;;;5013248;28;20025;-73
2023/07/10 06:27:53;;;;;;;19.60;15.88;;;;;;;;;;5013011;28;20368;-73
2023/07/10 06:30:18;;;;;;;19.30;13.70;;;;;;;;;;5013448;28;20030;-73
2023/07/10 06:32:44;;;;;;;22.48;15.43;;;;;;;;;;5012443;28;20036;-73
2023/07/10 06:35:12;;;;;;;25.52;15.45;;;;;;;;;;5013956;28;20022;-73
2023/07/10 06:37:41;;;;;;;22.00;15.20;;;;;;;;;;5013481;28;20018;-73
2023/07/10 06:40:10;;;;;;;19.38;13.70;;;;;;;;;;5012028;28;20076;-73
2023/07/10 06:42:36;;;;;;;20.73;14.52;;;;;;;;;;5011857;28;20502;-75
2023/07/10 06:45:02;;;;;;;22.85;14.05;;;;;;;;;;5013744;28;20039;-71
2023/07/10 06:47:31;;;;;;;21.08;12.73;;;;;;;;;;5009119;28;20065;-71
2023/07/10 06:49:56;;;;;;;16.77;11.43;;;;;;;;;;5009801;28;20022;-71
2023/07/10 06:52:21;;;;;;;13.25;10.30;;;;;;;;;;4993439;28;20018;-71
2023/07/10 06:54:47;;;;;;;14.15;10.27;;;;;;;;;;5007366;28;20021;-71
2023/07/10 06:57:12;;;;;;;17.60;10.70;;;;;;;;;;5013452;28;20018;-71
2023/07/10 06:59:37;;;;;;;14.23;9.35;;;;;;;;;;5012923;28;20030;-71
2023/07/10 07:02:03;;;;;;;21.33;8.90;;;;;;;;;;5013619;28;20454;-74
2023/07/10 07:04:28;;;;;;;14.20;9.65;;;;;;;;;;5012135;28;20025;-74
2023/07/10 07:06:54;;;;;;;11.27;8.00;;;;;;;;;;5012365;28;20030;-74
2023/07/10 07:09:19;;;;;;;10.23;7.82;;;;;;;;;;5012018;28;20044;-74
2023/07/10 07:11:45;;;;;;;11.40;7.93;;;;;;;;;;5013000;28;20481;-73
2023/07/10 07:14:10;;;;;;;11.13;8.80;;;;;;;;;;5013252;28;20402;-72
2023/07/10 07:16:36;;;;;;;14.70;7.43;;;;;;;;;;5013818;28;20076;-73
2023/07/10 07:19:01;;;;;;;13.95;8.10;;;;;;;;;;5013198;28;20032;-72
2023/07/10 07:21:26;;;;;;;12.40;6.28;;;;;;;;;;5013704;28;20548;-72
2023/07/10 07:23:52;;;;;;;11.90;6.05;;;;;;;;;;5013401;28;20037;-72
2023/07/10 07:26:17;;;;;;;12.68;6.53;;;;;;;;;;5012062;28;20030;-72
2023/07/10 07:28:43;;;;;;;16.42;7.68;;;;;;;;;;5012092;28;20040;-75
2023/07/10 07:31:08;;;;;;;10.20;5.93;;;;;;;;;;5011202;28;20060;-69
2023/07/10 07:33:34;;;;;;;7.43;4.68;;;;;;;;;;5012877;28;20030;-68
2023/07/10 07:36:00;;;;;;;5.28;3.97;;;;;;;;;;5013231;28;20022;-69
2023/07/10 07:38:26;;;;;;;5.65;4.30;;;;;;;;;;5008082;28;20018;-70
2023/07/10 07:40:52;;;;;;;6.35;3.88;;;;;;;;;;4993275;28;20044;-70
2023/07/10 07:43:18;;;;;;;4.90;3.88;;;;;;;;;;4995564;28;20541;-71
2023/07/10 07:45:53;;;;;;;5.47;4.50;;;;;;;;;;5011813;28;20022;-71
2023/07/10 07:48:20;;;;;;;5.20;4.20;;;;;;;;;;5012760;28;20022;-71
2023/07/10 07:51:03;;;;;;;6.85;4.90;;;;;;;;;;5014960;28;20030;-71
2023/07/10 07:53:32;;;;;;;7.30;5.15;;;;;;;;;;5016093;28;20072;-71
2023/07/10 07:55:57;;;;;;;7.05;5.38;;;;;;;;;;5015442;28;20033;-71
2023/07/10 07:58:23;;;;;;;9.05;6.22;;;;;;;;;;5017112;28;20025;-71
2023/07/10 08:00:49;;;;;;;8.68;5.85;;;;;;;;;;5017042;28;20501;-70
2023/07/10 08:03:14;;;;;;;10.45;5.82;;;;;;;;;;5017555;28;20053;-71
2023/07/10 08:05:39;;;;;;;10.15;6.60;;;;;;;;;;5016377;28;20032;-71
2023/07/10 08:08:06;;;;;;;10.85;5.95;;;;;;;;;;5017480;28;20045;-70
2023/07/10 08:10:36;;;;;;;7.70;6.05;;;;;;;;;;5015616;28;20032;-70
2023/07/10 08:13:03;;;;;;;9.15;6.40;;;;;;;;;;5015955;28;20032;-71
2023/07/10 08:15:29;;;;;;;8.73;6.15;;;;;;;;;;5015147;28;20026;-71
2023/07/10 08:17:54;;;;;;;7.63;5.85;;;;;;;;;;5015603;28;20022;-71
2023/07/10 08:20:19;;;;;;;11.07;6.50;;;;;;;;;;5016617;28;20021;-70
2023/07/10 08:22:45;;;;;;;10.32;6.40;;;;;;;;;;5017118;28;20379;-71
2023/07/10 08:25:10;;;;;;;10.65;5.90;;;;;;;;;;5016613;28;20029;-70
2023/07/10 08:27:36;;;;;;;10.45;6.43;;;;;;;;;;5016435;28;20025;-71
2023/07/10 08:30:01;;;;;;;9.77;6.68;;;;;;;;;;5015975;28;20025;-71
2023/07/10 08:32:26;;;;;;;11.65;7.45;;;;;;;;;;5016366;28;20022;-71
2023/07/10 08:34:52;;;;;;;9.48;6.53;;;;;;;;;;5017032;28;20071;-70
2023/07/10 08:37:17;;;;;;;10.30;6.82;;;;;;;;;;5016048;28;20032;-71
2023/07/10 08:39:43;;;;;;;8.70;6.43;;;;;;;;;;5016401;28;20540;-71
2023/07/10 08:42:17;;;;;;;8.43;6.10;;;;;;;;;;5016267;28;20036;-70
2023/07/10 08:44:42;;;;;;;8.55;6.43;;;;;;;;;;5016799;28;20437;-70
2023/07/10 08:47:26;;;;;;;11.10;7.22;;;;;;;;;;5014973;28;20033;-71
2023/07/10 08:50:02;;;;;;;10.90;7.28;;;;;;;;;;5014469;28;20018;-70
2023/07/10 08:52:39;;;;;;;13.68;7.43;;;;;;;;;;5014913;28;20061;-70
2023/07/10 08:55:11;;;;;;;12.65;6.95;;;;;;;;;;5014356;28;20026;-71
2023/07/10 08:57:37;;;;;;;12.88;7.20;;;;;;;;;;5014393;28;20018;-71
2023/07/10 09:00:09;;;;;;;10.07;7.15;;;;;;;;;;5014265;28;20113;-71
2023/07/10 09:02:42;;;;;;;11.57;7.68;;;;;;;;;;5015040;28;20093;-70
2023/07/10 09:05:11;;;;;;;12.57;7.78;;;;;;;;;;5014771;28;20050;-71
2023/07/10 09:07:42;;;;;;;11.25;7.47;;;;;;;;;;5014593;28;20022;-70
2023/07/10 09:10:13;;;;;;;13.15;8.57;;;;;;;;;;5014365;28;20034;-70
2023/07/10 09:12:41;;;;;;;13.60;8.23;;;;;;;;;;5014830;28;20116;-70
2023/07/10 09:15:12;;;;;;;9.77;7.22;;;;;;;;;;5014609;28;20029;-71
2023/07/10 09:17:46;;;;;;;11.32;7.78;;;;;;;;;;5014558;28;20018;-70
2023/07/10 09:20:12;;;;;;;10.45;6.38;;;;;;;;;;5015518;28;20483;-70
2023/07/10 09:22:44;;;;;;;11.98;6.65;;;;;;;;;;5013757;28;20022;-70
2023/07/10 09:25:11;;;;;;;10.13;6.55;;;;;;;;;;5014669;28;20105;-70
2023/07/10 09:27:37;;;;;;;12.30;6.55;;;;;;;;;;5014207;28;20026;-70
2023/07/10 09:30:03;;;;;;;10.20;6.45;;;;;;;;;;5014201;28;20096;-70
2023/07/10 09:32:35;;;;;;;10.70;7.15;;;;;;;;;;5015400;28;20029;-70
2023/07/10 09:35:00;;;;;;;9.95;6.53;;;;;;;;;;4997610;28;20044;-70
2023/07/10 09:37:36;;;;;;;9.88;6.05;;;;;;;;;;5014062;28;20021;-70
2023/07/10 09:40:38;;;;;;;7.28;4.70;;;;;;;;;;5015197;28;20038;-70
2023/07/10 09:43:06;;;;;;;7.05;4.88;;;;;;;;;;5015952;28;20037;-71
2023/07/10 09:45:37;;;;;;;7.80;4.10;;;;;;;;;;5013852;28;20052;-71
2023/07/10 09:48:11;;;;;;;7.25;4.03;;;;;;;;;;5013402;28;20025;-70
2023/07/10 09:50:36;;;;;;;6.65;3.75;;;;;;;;;;5013856;28;20113;-70
2023/07/10 09:53:01;;;;;;;7.38;4.32;;;;;;;;;;5015022;28;20024;-70
2023/07/10 09:55:27;;;;;;;6.32;3.92;;;;;;;;;;5014960;28;20028;-70
2023/07/10 09:58:02;;;;;;;6.45;3.70;;;;;;;;;;5015182;28;20071;-70
2023/07/10 10:00:29;;;;;;;8.38;4.18;;;;;;;;;;5013030;28;20040;-70
2023/07/10 10:02:57;;;;;;;7.07;4.03;;;;;;;;;;5013842;28;20026;-70
2023/07/10 10:05:23;;;;;;;4.93;3.67;;;;;;;;;;5014842;28;20080;-70
2023/07/10 10:07:51;;;;;;;3.72;2.90;;;;;;;;;;5013510;28;20026;-70
2023/07/10 10:10:34;;;;;;;5.82;2.67;;;;;;;;;;5012967;28;20029;-70
2023/07/10 10:13:21;;;;;;;4.85;3.30;;;;;;;;;;5012584;28;20064;-70
2023/07/10 10:16:06;;;;;;;4.45;3.00;;;;;;;;;;5014633;28;20033;-70
2023/07/10 10:18:45;;;;;;;6.55;2.90;;;;;;;;;;5013623;28;20025;-70
2023/07/10 10:21:13;;;;;;;4.35;2.30;;;;;;;;;;5013264;28;20475;-70
2023/07/10 10:23:41;;;;;;;5.30;2.50;;;;;;;;;;5005397;28;20479;-70
2023/07/10 10:26:33;;;;;;;4.32;2.20;;;;;;;;;;5026805;28;20029;-70
2023/07/10 10:29:16;;;;;;;4.78;2.80;;;;;;;;;;5010019;28;20108;-70
2023/07/10 10:31:50;;;;;;;3.97;2.10;;;;;;;;;;5008976;28;20037;-70
2023/07/10 10:34:37;;;;;;;4.90;2.63;;;;;;;;;;5008018;28;20499;-70
2023/07/10 10:37:08;;;;;;;4.47;2.58;;;;;;;;;;5010563;28;20028;-70
2023/07/10 10:39:39;;;;;;;2.92;2.47;;;;;;;;;;5009772;28;20028;-70
2023/07/10 10:42:16;;;;;;;2.67;2.08;;;;;;;;;;5012480;28;20097;-69
2023/07/10 10:44:44;;;;;;;3.92;2.10;;;;;;;;;;5012734;28;20104;-69
2023/07/10 10:47:52;;;;;;;3.53;2.13;;;;;;;;;;5012120;28;20022;-69
2023/07/10 10:50:49;;;;;;;3.35;2.03;;;;;;;;;;5016883;28;20088;-69
2023/07/10 10:53:17;;;;;;;3.30;2.00;;;;;;;;;;5015773;28;20044;-70
2023/07/10 10:56:14;;;;;;;3.58;2.20;;;;;;;;;;5012244;28;20550;-70
2023/07/10 10:59:18;;;;;;;2.30;1.80;;;;;;;;;;5006866;28;20028;-68
2023/07/10 11:01:52;;;;;;;6.03;2.67;;;;;;;;;;5007787;28;20414;-68
2023/07/10 11:04:28;;;;;;;3.10;1.90;;;;;;;;;;5001485;28;20030;-68
2023/07/10 11:06:57;;;;;;;5.53;2.08;;;;;;;;;;5013136;28;20034;-68
2023/07/10 11:09:25;;;;;;;5.03;2.13;;;;;;;;;;5011701;28;20034;-68
2023/07/10 11:11:51;;;;;;;2.85;2.15;;;;;;;;;;5012108;28;20424;-68
2023/07/10 11:14:17;;;;;;;2.90;1.60;;;;;;;;;;5013485;28;20025;-68
2023/07/10 11:16:42;;;;;;;4.07;1.73;;;;;;;;;;5013129;28;20014;-68
2023/07/10 11:19:14;;;;;;;3.38;2.35;;;;;;;;;;5012170;28;20386;-68
2023/07/10 11:21:39;;;;;;;2.58;1.70;;;;;;;;;;5012188;28;20049;-68
2023/07/10 11:24:29;;;;;;;3.97;1.70;;;;;;;;;;5011473;28;20022;-68
2023/07/10 11:26:59;;;;;;;3.13;1.55;;;;;;;;;;5013347;28;20116;-68
2023/07/10 11:29:35;;;;;;;3.90;1.48;;;;;;;;;;5012816;28;20105;-68
2023/07/10 11:32:19;;;;;;;3.85;1.40;;;;;;;;;;5012723;28;20507;-68
2023/07/10 11:34:48;;;;;;;;;;;;;;;;;;5013843;28;20029;-68
2023/07/10 11:37:49;;;;;;;5.78;2.15;;;;;;;;;;5012130;28;20258;-68
2023/07/10 11:40:23;;;;;;;5.70;1.50;;;;;;;;;;5011013;28;20033;-69
2023/07/10 11:42:49;;;;;;;2.97;1.30;;;;;;;;;;4995883;28;20525;-68
2023/07/10 11:45:15;;;;;;;4.25;1.52;;;;;;;;;;4993542;28;20113;-68
2023/07/10 11:47:43;;;;;;;2.40;1.60;;;;;;;;;;4993388;28;20042;-68
2023/07/10 11:50:22;;;;;;;3.13;1.67;;;;;;;;;;4993269;28;20080;-68
2023/07/10 11:53:13;;;;;;;3.40;1.50;;;;;;;;;;4994069;28;20026;-68
2023/07/10 11:55:53;;;;;;;2.33;1.42;;;;;;;;;;4993939;28;20463;-68
2023/07/10 11:58:30;;;;;;;3.45;1.60;;;;;;;;;;4993772;28;20484;-68
2023/07/10 12:01:13;;;;;;;3.30;1.48;;;;;;;;;;5012550;28;20022;-68
2023/07/10 12:03:38;;;;;;;;;;;;;;;;;;5011457;28;20060;-68
2023/07/10 12:06:14;;;;;;;3.57;1.50;;;;;;;;;;5011702;28;19913;-68
2023/07/10 12:08:39;;;;;;;3.55;1.70;;;;;;;;;;5012053;28;20121;-68
2023/07/10 12:11:04;;;;;;;7.30;2.28;;;;;;;;;;5013025;28;20025;-68
2023/07/10 12:13:31;;;;;;;2.88;1.48;;;;;;;;;;5012554;28;20022;-68
2023/07/10 12:16:02;;;;;;;2.42;1.30;;;;;;;;;;5011748;28;20040;-68
2023/07/10 12:18:33;;;;;;;3.70;1.60;;;;;;;;;;5011346;28;20116;-68
2023/07/10 12:21:00;;;;;;;4.38;1.98;;;;;;;;;;5010952;28;20438;-68
2023/07/10 12:23:26;;;;;;;4.68;1.60;;;;;;;;;;5012820;28;20033;-68
2023/07/10 12:25:53;;;;;;;3.80;1.27;;;;;;;;;;5011484;28;20034;-68
2023/07/10 12:28:20;;;;;;;3.63;1.55;;;;;;;;;;5010634;28;20034;-68
2023/07/10 12:30:47;;;;;;;3.58;1.77;;;;;;;;;;5011163;28;20458;-68
2023/07/10 12:33:38;;;;;;;2.95;1.27;;;;;;;;;;5012432;28;20506;-68
2023/07/10 12:36:31;;;;;;;6.63;1.85;;;;;;;;;;5012875;28;20025;-68
2023/07/10 12:38:59;;;;;;;4.55;1.60;;;;;;;;;;5014697;28;20513;-68
2023/07/10 12:41:25;;;;;;;2.70;1.52;;;;;;;;;;5014195;28;20072;-68
2023/07/10 12:43:53;;;;;;;6.13;1.67;;;;;;;;;;5016117;28;20037;-68
2023/07/10 12:46:22;;;;;;;3.00;1.40;;;;;;;;;;5014908;28;20029;-68
2023/07/10 12:48:49;;;;;;;3.58;1.50;;;;;;;;;;5015375;28;20032;-69
2023/07/10 12:51:20;;;;;;;4.40;1.42;;;;;;;;;;5015230;28;20025;-68
2023/07/10 12:53:45;;;;;;;7.07;1.40;;;;;;;;;;5014614;28;20048;-69
2023/07/10 12:56:33;;;;;;;3.13;1.60;;;;;;;;;;5008022;28;20519;-69
2023/07/10 12:59:12;;;;;;;5.03;1.70;;;;;;;;;;4995353;28;20555;-69
2023/07/10 13:01:37;;;;;;;4.10;1.70;;;;;;;;;;5001848;28;20534;-68
2023/07/10 13:04:03;;;;;;;5.15;1.98;;;;;;;;;;5016090;28;20116;-70
2023/07/10 13:06:28;;;;;;;3.77;1.77;;;;;;;;;;5015692;28;20030;-69
2023/07/10 13:08:56;;;;;;;5.40;1.90;;;;;;;;;;5013889;28;20444;-69
2023/07/10 13:11:23;;;;;;;4.20;2.22;;;;;;;;;;5015517;28;20025;-69
2023/07/10 13:13:49;;;;;;;4.93;1.80;;;;;;;;;;5014248;28;20028;-69
2023/07/10 13:16:17;;;;;;;6.32;1.88;;;;;;;;;;5011473;28;20097;-70
2023/07/10 13:18:43;;;;;;;5.38;2.20;;;;;;;;;;5013522;28;20390;-71
2023/07/10 13:21:14;;;;;;;3.88;1.48;;;;;;;;;;5006132;28;20034;-70
2023/07/10 13:23:39;;;;;;;4.18;1.75;;;;;;;;;;5027195;28;20112;-70
2023/07/10 13:26:17;;;;;;;5.57;1.77;;;;;;;;;;5014504;28;20030;-71
2023/07/10 13:28:43;;;;;;;4.28;1.70;;;;;;;;;;5013750;28;20022;-69
2023/07/10 13:31:08;;;;;;;4.95;1.70;;;;;;;;;;5014020;28;20108;-69
2023/07/10 13:33:34;;;;;;;7.55;2.20;;;;;;;;;;5013840;28;20688;-69
2023/07/10 13:36:00;;;;;;;4.28;1.80;;;;;;;;;;5013352;28;20022;-69
2023/07/10 13:38:26;;;;;;;6.90;1.90;;;;;;;;;;5013800;28;20616;-70
2023/07/10 13:40:52;;;;;;;5.65;1.92;;;;;;;;;;5012860;28;20045;-70
2023/07/10 13:43:22;;;;;;;4.85;1.90;;;;;;;;;;5025185;23;20038;-75
2023/07/10 13:46:01;;;;;;;6.88;2.10;;;;;;;;;;5004984;28;20034;-73
2023/07/10 13:48:27;;;;;;;6.38;2.00;;;;;;;;;;5001662;28;20045;-73
2023/07/10 13:50:53;;;;;;;3.53;1.70;;;;;;;;;;4990912;28;20058;-75
2023/07/10 13:53:21;;;;;;;4.53;1.88;;;;;;;;;;4999857;28;20484;-74
2023/07/10 13:55:48;;;;;;;4.30;1.77;;;;;;;;;;4983770;28;20454;-73
2023/07/10 13:58:22;;;;;;;3.25;1.52;;;;;;;;;;4964920;28;20104;-75
2023/07/10 14:00:49;;;;;;;3.00;1.70;;;;;;;;;;4993569;28;20087;-76
2023/07/10 14:03:16;;;;;;;5.03;2.03;;;;;;;;;;4987179;28;20057;-76
2023/07/10 14:05:43;;;;;;;4.53;1.70;;;;;;;;;;4990544;28;20029;-76
2023/07/10 14:08:26;;;;;;;9.27;2.00;;;;;;;;;;4993831;28;20045;-76
2023/07/10 14:10:51;;;;;;;3.85;1.88;;;;;;;;;;4994785;28;20053;-76
2023/07/10 14:13:17;;;;;;;6.43;1.80;;;;;;;;;;4994177;28;20476;-78
2023/07/10 14:15:43;;;;;;;3.83;2.25;;;;;;;;;;5010892;28;20022;-78
2023/07/10 14:18:20;;;;;;;7.72;2.10;;;;;;;;;;4995905;28;20037;-78
2023/07/10 14:20:46;;;;;;;5.13;2.20;;;;;;;;;;4993907;28;20037;-77
2023/07/10 14:23:15;;;;;;;9.68;2.35;;;;;;;;;;4995279;28;20026;-77
2023/07/10 14:25:41;;;;;;;5.22;2.10;;;;;;;;;;5009751;28;20022;-77
2023/07/10 14:28:16;;;;;;;5.57;2.10;;;;;;;;;;4995445;28;20025;-77
2023/07/10 14:30:42;;;;;;;6.65;2.00;;;;;;;;;;5010170;28;20048;-77
2023/07/10 14:33:08;;;;;;;4.00;1.80;;;;;;;;;;4993722;28;20539;-77
2023/07/10 14:35:34;;;;;;;7.55;1.88;;;;;;;;;;4993893;28;20042;-78
2023/07/10 14:38:00;;;;;;;5.70;2.08;;;;;;;;;;5010483;28;20068;-77
2023/07/10 14:40:25;;;;;;;7.80;2.10;;;;;;;;;;5009660;28;20455;-75